Time;durP1;ratioP1;P1;durP2;ratioP2;P2;SDS_P1;SDS_P2;PMS_P1;PMS_P2;Temp;Humidity;BMP_temperature;BMP_pressure;BME280_temperature;BME280_humidity;BME280_pressure;Samples;Min_cycle;Max_cycle;Signal;HPM_P1;HPM_P2
2021/04/09 00:01:50;;;;;;;30.13;12.43;;;;;;;-0.61;58.69;99653.50;114343;1193;64420;-78
2021/04/09 00:04:17;;;;;;;30.27;10.73;;;;;;;-0.65;58.27;99650.05;114355;1193;64298;-81
2021/04/09 00:06:44;;;;;;;30.73;11.67;;;;;;;-0.73;58.04;99644.09;114261;1193;64376;-81
2021/04/09 00:09:12;;;;;;;28.23;10.73;;;;;;;-0.79;58.20;99651.19;114301;1193;64481;-82
2021/04/09 00:11:40;;;;;;;31.00;13.20;;;;;;;-0.88;58.17;99652.22;114264;1193;64420;-83
2021/04/09 00:14:10;;;;;;;32.07;11.13;;;;;;;-0.93;58.53;99651.42;114371;1193;64519;-81
2021/04/09 00:16:37;;;;;;;28.67;12.40;;;;;;;-0.99;58.75;99657.63;114382;1193;64337;-81
2021/04/09 00:19:24;;;;;;;31.50;11.60;;;;;;;-1.02;58.94;99647.17;114348;1193;64350;-79
2021/04/09 00:21:51;;;;;;;29.65;11.95;;;;;;;-1.02;58.94;99652.41;114260;1193;64839;-83
2021/04/09 00:24:18;;;;;;;28.27;11.53;;;;;;;-1.03;58.73;99655.06;114261;1193;64397;-82
2021/04/09 00:26:45;;;;;;;28.45;10.85;;;;;;;-1.06;58.85;99653.38;114375;1193;64443;-80
2021/04/09 00:29:12;;;;;;;23.03;9.97;;;;;;;-1.07;58.95;99659.52;114282;1193;64394;-80
2021/04/09 00:31:39;;;;;;;25.17;9.77;;;;;;;-1.10;59.06;99663.02;114323;1193;64356;-82
2021/04/09 00:34:06;;;;;;;26.57;10.10;;;;;;;-1.10;59.13;99651.67;114318;1193;64496;-80
2021/04/09 00:36:36;;;;;;;28.63;10.60;;;;;;;-1.09;59.25;99650.78;114347;1193;64292;-79
2021/04/09 00:39:05;;;;;;;28.60;10.80;;;;;;;-1.12;58.96;99645.60;114370;1193;64371;-80
2021/04/09 00:41:31;;;;;;;28.23;10.90;;;;;;;-1.13;59.17;99647.36;114367;1193;64334;-80
2021/04/09 00:43:58;;;;;;;23.63;10.00;;;;;;;-1.12;59.33;99645.60;114489;1193;64446;-80
2021/04/09 00:46:25;;;;;;;29.70;11.17;;;;;;;-1.13;59.12;99643.88;114338;1193;64471;-80
2021/04/09 00:48:52;;;;;;;32.03;13.10;;;;;;;-1.15;59.09;99638.63;114339;1193;64398;-80
2021/04/09 00:51:21;;;;;;;40.67;13.93;;;;;;;-1.17;58.68;99643.04;114227;1193;64375;-81
2021/04/09 00:53:48;;;;;;;51.75;18.60;;;;;;;-1.15;59.17;99640.39;114355;1193;64302;-80
2021/04/09 00:56:19;;;;;;;51.13;16.63;;;;;;;-1.13;59.47;99647.36;114388;1193;64320;-79
2021/04/09 00:58:46;;;;;;;49.13;19.03;;;;;;;-1.14;59.31;99640.39;114349;1193;64364;-82
2021/04/09 01:01:13;;;;;;;51.65;18.50;;;;;;;-1.14;59.45;99647.39;114301;1193;64291;-81
2021/04/09 01:03:40;;;;;;;48.93;18.47;;;;;;;-1.16;59.09;99636.91;114419;1193;64368;-82
2021/04/09 01:06:08;;;;;;;53.30;19.10;;;;;;;-1.16;59.31;99636.91;114294;1193;64385;-81
2021/04/09 01:08:38;;;;;;;57.10;20.20;;;;;;;-1.15;59.21;99643.01;114306;1193;64413;-80
2021/04/09 01:11:05;;;;;;;54.73;18.60;;;;;;;-1.16;59.89;99642.14;114326;1193;64436;-79
2021/04/09 01:13:32;;;;;;;52.80;19.45;;;;;;;-1.19;59.21;99642.21;114325;1193;64379;-84
2021/04/09 01:15:59;;;;;;;47.70;19.27;;;;;;;-1.20;59.84;99635.24;114344;1193;64451;-81
2021/04/09 01:18:32;;;;;;;57.30;19.70;;;;;;;-1.20;59.81;99631.76;114351;1193;64414;-80
2021/04/09 01:21:14;;;;;;;51.13;18.03;;;;;;;-1.23;59.60;99640.52;114323;1193;64368;-82
2021/04/09 01:23:48;;;;;;;54.87;17.77;;;;;;;-1.26;59.75;99632.71;114326;1193;64876;-82
2021/04/09 01:26:40;;;;;;;52.20;19.50;;;;;;;-1.27;59.90;99635.33;114324;1193;64363;-79
2021/04/09 01:29:43;;;;;;;42.70;16.40;;;;;;;-1.29;59.41;99624.88;114336;1193;64899;-81
2021/04/09 01:32:12;;;;;;;45.73;16.10;;;;;;;-1.27;59.98;99633.61;114265;1193;64420;-79
2021/04/09 01:34:44;;;;;;;36.13;14.97;;;;;;;-1.23;60.16;99629.17;114314;1192;64433;-80
2021/04/09 01:37:26;;;;;;;33.37;12.63;;;;;;;-1.20;59.97;99631.76;114245;1192;64445;-79
2021/04/09 01:39:55;;;;;;;30.10;12.20;;;;;;;-1.23;59.62;99626.55;114386;1193;64333;-81
2021/04/09 01:42:24;;;;;;;31.90;13.63;;;;;;;-1.26;60.00;99623.98;114332;1193;64317;-82
2021/04/09 01:44:53;;;;;;;31.37;12.90;;;;;;;-1.28;60.02;99615.27;114357;1193;65977;-81
2021/04/09 01:47:25;;;;;;;34.55;13.50;;;;;;;-1.27;60.25;99609.13;114285;1193;64375;-81
2021/04/09 01:49:59;;;;;;;36.17;13.50;;;;;;;-1.28;60.08;99608.27;114370;1193;64449;-79
2021/04/09 01:52:28;;;;;;;38.55;13.78;;;;;;;-1.31;60.06;99607.47;114314;1193;64374;-80
2021/04/09 01:54:57;;;;;;;35.10;13.73;;;;;;;-1.34;60.12;99604.88;114338;1192;64372;-80
2021/04/09 01:57:26;;;;;;;33.90;12.80;;;;;;;-1.40;59.52;99598.86;114266;1193;64391;-80
2021/04/09 01:59:54;;;;;;;38.70;13.65;;;;;;;-1.43;60.15;99600.65;114222;1193;64515;-80
2021/04/09 02:02:21;;;;;;;25.60;12.45;;;;;;;-1.46;59.79;99595.47;114253;1193;65645;-81
2021/04/09 02:04:48;;;;;;;29.95;12.15;;;;;;;-1.50;60.35;99592.02;114336;1193;64362;-78
2021/04/09 02:07:17;;;;;;;28.10;11.80;;;;;;;-1.51;60.02;99606.02;114314;1192;64806;-81
2021/04/09 02:09:46;;;;;;;27.07;11.40;;;;;;;-1.51;60.31;99595.53;114388;1193;64401;-80
2021/04/09 02:12:15;;;;;;;28.90;11.63;;;;;;;-1.47;60.37;99591.95;114252;1193;64365;-80
2021/04/09 02:14:43;;;;;;;33.50;12.70;;;;;;;-1.45;60.59;99590.20;114311;1193;64462;-80
2021/04/09 02:17:10;;;;;;;25.45;10.20;;;;;;;-1.42;60.68;99589.28;114333;1193;64359;-82
2021/04/09 02:19:40;;;;;;;23.70;11.60;;;;;;;-1.38;60.29;99589.22;114242;1193;64471;-79
2021/04/09 02:22:07;;;;;;;24.50;10.73;;;;;;;-1.38;59.92;99583.12;114407;1193;64383;-80
2021/04/09 02:24:34;;;;;;;33.60;11.10;;;;;;;-1.39;60.41;99578.77;114351;1193;64446;-80
2021/04/09 02:27:02;;;;;;;23.27;10.97;;;;;;;-1.42;60.48;99581.42;114250;1193;64401;-80
2021/04/09 02:29:30;;;;;;;29.30;10.90;;;;;;;-1.42;60.12;99578.80;114229;1193;64423;-80
2021/04/09 02:31:58;;;;;;;28.87;12.13;;;;;;;-1.45;60.55;99568.38;114323;1193;64365;-80
2021/04/09 02:34:25;;;;;;;26.00;12.20;;;;;;;-1.46;60.67;99578.00;114322;1193;64459;-80
2021/04/09 02:36:52;;;;;;;29.90;12.95;;;;;;;-1.52;60.62;99577.23;114338;1192;64388;-79
2021/04/09 02:39:21;;;;;;;29.17;12.63;;;;;;;-1.57;60.64;99573.80;114289;1193;64614;-80
2021/04/09 02:41:52;;;;;;;31.13;13.70;;;;;;;-1.64;60.44;99578.27;114343;1193;64359;-81
2021/04/09 02:44:20;;;;;;;32.67;14.00;;;;;;;-1.69;60.55;99575.70;114240;1193;64359;-79
2021/04/09 02:47:07;;;;;;;30.00;13.55;;;;;;;-1.69;60.89;99572.23;114291;1193;64959;-80
2021/04/09 02:49:39;;;;;;;24.23;11.40;;;;;;;-1.70;60.90;99573.12;114249;1193;64413;-79
2021/04/09 02:52:08;;;;;;;20.83;9.90;;;;;;;-1.71;61.04;99566.16;114276;1193;64452;-80
2021/04/09 02:54:37;;;;;;;20.63;10.37;;;;;;;-1.72;60.84;99560.05;114346;1193;64452;-80
2021/04/09 02:57:05;;;;;;;19.40;9.70;;;;;;;-1.71;60.82;99550.45;114306;1193;64385;-79
2021/04/09 02:59:32;;;;;;;20.53;9.73;;;;;;;-1.70;61.04;99550.41;114334;1193;64404;-79
2021/04/09 03:02:00;;;;;;;17.90;9.70;;;;;;;-1.70;61.16;99552.17;114310;1193;64295;-82
2021/04/09 03:04:30;;;;;;;20.60;8.93;;;;;;;-1.71;61.16;99551.30;114321;1193;64420;-80
2021/04/09 03:06:58;;;;;;;23.40;10.15;;;;;;;-1.70;60.86;99546.94;114498;1193;64468;-79
2021/04/09 03:09:25;;;;;;;22.00;10.70;;;;;;;-1.70;61.06;99539.08;114327;1193;64336;-79
2021/04/09 03:11:52;;;;;;;23.50;10.50;;;;;;;-1.71;60.66;99540.83;114361;1193;64356;-80
2021/04/09 03:14:20;;;;;;;19.85;9.30;;;;;;;-1.70;60.90;99546.94;114307;1193;64455;-80
2021/04/09 03:16:58;;;;;;;22.53;9.33;;;;;;;-1.72;60.94;99541.73;114238;1193;64355;-78
2021/04/09 03:19:25;;;;;;;22.27;10.13;;;;;;;-1.73;61.37;99532.11;114336;1192;64816;-79
2021/04/09 03:21:52;;;;;;;21.57;9.40;;;;;;;-1.72;61.03;99527.73;114302;1193;64369;-80
2021/04/09 03:24:18;;;;;;;22.60;10.07;;;;;;;-1.74;60.91;99530.39;114391;1193;64366;-81
2021/04/09 03:26:46;;;;;;;20.50;10.30;;;;;;;-1.76;60.90;99531.31;114379;1193;64388;-80
2021/04/09 03:29:15;;;;;;;30.67;10.50;;;;;;;-1.77;60.79;99529.59;114348;1193;64503;-80
2021/04/09 03:31:44;;;;;;;22.33;10.27;;;;;;;-1.79;61.02;99520.87;114382;1193;64815;-80
2021/04/09 03:34:11;;;;;;;21.80;9.53;;;;;;;-1.81;61.05;99522.66;114310;1193;64363;-81
2021/04/09 03:36:38;;;;;;;24.30;9.67;;;;;;;-1.83;61.66;99514.83;114356;1193;64344;-79
2021/04/09 03:39:05;;;;;;;23.90;8.75;;;;;;;-1.84;61.51;99517.48;114313;1193;64403;-79
2021/04/09 03:41:32;;;;;;;25.30;9.85;;;;;;;-1.87;61.51;99514.89;114297;1193;64379;-81
2021/04/09 03:43:59;;;;;;;28.40;10.20;;;;;;;-1.89;61.28;99508.81;114351;1192;64420;-78
2021/04/09 03:46:25;;;;;;;21.00;9.90;;;;;;;-1.91;61.48;99512.33;114256;1193;64369;-79
2021/04/09 03:48:52;;;;;;;16.65;9.75;;;;;;;-1.94;61.05;99504.50;114343;1193;64407;-80
2021/04/09 03:51:19;;;;;;;20.63;9.43;;;;;;;-1.95;61.25;99505.39;114505;1193;64445;-81
2021/04/09 03:53:45;;;;;;;20.60;10.00;;;;;;;-1.97;61.53;99501.95;114394;1193;64435;-80
2021/04/09 03:56:12;;;;;;;18.10;9.20;;;;;;;-1.98;61.28;99502.81;114282;1193;64372;-82
2021/04/09 03:58:39;;;;;;;19.23;10.00;;;;;;;-2.01;61.27;99507.23;114154;1193;64302;-80
2021/04/09 04:01:06;;;;;;;30.43;10.27;;;;;;;-2.02;61.53;99505.52;114743;1193;64481;-78
2021/04/09 04:03:33;;;;;;;21.55;10.40;;;;;;;-2.06;61.32;99503.81;114353;1193;64276;-83
2021/04/09 04:05:59;;;;;;;24.15;10.70;;;;;;;-2.07;61.43;99505.57;114347;1193;64455;-78
2021/04/09 04:08:26;;;;;;;28.93;12.03;;;;;;;-2.09;61.36;99499.50;114600;1193;64378;-79
2021/04/09 04:10:53;;;;;;;24.05;10.45;;;;;;;-2.10;61.43;99492.55;114302;1193;64480;-80
2021/04/09 04:13:21;;;;;;;23.40;10.63;;;;;;;-2.09;61.44;99496.88;114380;1193;64308;-82
2021/04/09 04:15:48;;;;;;;24.30;11.00;;;;;;;-2.08;61.48;99498.61;114320;1193;64378;-82
2021/04/09 04:18:15;;;;;;;31.77;12.37;;;;;;;-2.09;61.63;99496.02;114435;1193;64295;-80
2021/04/09 04:20:41;;;;;;;24.90;12.40;;;;;;;-2.08;61.83;99489.90;114440;1193;65750;-80
2021/04/09 04:23:08;;;;;;;40.13;15.40;;;;;;;-2.08;61.85;99487.28;114298;1192;64439;-83
2021/04/09 04:25:35;;;;;;;37.25;15.25;;;;;;;-2.05;61.62;99485.47;114333;1193;64429;-79
2021/04/09 04:28:01;;;;;;;32.10;14.60;;;;;;;-2.04;61.54;99492.42;114463;1193;64410;-83
2021/04/09 04:30:28;;;;;;;34.45;14.40;;;;;;;-2.01;61.67;99486.30;114136;1193;64349;-81
2021/04/09 04:32:55;;;;;;;42.00;16.57;;;;;;;-2.00;61.69;99478.42;114360;1193;64372;-79
2021/04/09 04:35:21;;;;;;;46.00;15.67;;;;;;;-1.96;61.92;99476.63;114940;1193;64838;-80
2021/04/09 04:37:48;;;;;;;58.65;18.70;;;;;;;-1.86;62.42;99482.58;114360;1193;64439;-80
2021/04/09 04:40:15;;;;;;;43.43;15.77;;;;;;;-1.76;62.08;99473.71;114299;1193;64469;-79
2021/04/09 04:42:42;;;;;;;46.27;14.57;;;;;;;-1.64;61.97;99471.77;114241;1193;64439;-81
2021/04/09 04:45:10;;;;;;;36.53;12.27;;;;;;;-1.53;61.58;99471.56;114458;1193;64423;-78
2021/04/09 04:47:36;;;;;;;62.10;12.90;;;;;;;-1.44;61.48;99466.19;114373;1193;64366;-81
2021/04/09 04:50:05;;;;;;;29.15;10.95;;;;;;;-1.32;62.16;99459.02;114202;1193;64449;-84
2021/04/09 04:52:31;;;;;;;36.20;12.60;;;;;;;-1.23;61.46;99461.45;114295;1193;64374;-81
2021/04/09 04:54:58;;;;;;;36.25;13.85;;;;;;;-1.14;62.10;99453.45;114295;1193;64860;-81
2021/04/09 04:57:25;;;;;;;38.10;14.15;;;;;;;-1.03;61.78;99454.09;114246;1193;64442;-80
2021/04/09 04:59:51;;;;;;;33.55;14.10;;;;;;;-0.88;61.46;99456.44;114282;1193;64410;-81
2021/04/09 05:02:18;;;;;;;47.80;16.17;;;;;;;-0.60;61.26;99450.63;114287;1193;64914;-80
2021/04/09 05:04:45;;;;;;;37.77;15.23;;;;;;;-0.33;61.34;99455.27;114329;1192;64404;-78
2021/04/09 05:07:12;;;;;;;42.20;15.10;;;;;;;-0.08;61.11;99455.59;114313;1193;64362;-80
2021/04/09 05:09:38;;;;;;;31.97;11.67;;;;;;;0.16;61.16;99454.17;114275;1192;64458;-80
2021/04/09 05:12:06;;;;;;;22.47;9.70;;;;;;;0.43;60.55;99442.13;114332;1193;64381;-78
2021/04/09 05:14:32;;;;;;;15.80;7.95;;;;;;;0.73;60.75;99432.61;114277;1192;64406;-80
2021/04/09 05:16:59;;;;;;;16.90;8.13;;;;;;;1.01;61.10;99439.75;114304;1192;64446;-82
2021/04/09 05:19:26;;;;;;;15.27;7.37;;;;;;;1.20;60.82;99430.44;114276;1193;64461;-79
2021/04/09 05:21:52;;;;;;;14.73;6.43;;;;;;;1.44;60.46;99428.88;114996;1192;64359;-83
2021/04/09 05:24:19;;;;;;;19.40;8.43;;;;;;;1.71;60.37;99415.80;114295;1193;64375;-79
2021/04/09 05:26:46;;;;;;;30.15;8.40;;;;;;;1.90;59.64;99423.09;114234;1193;64398;-79
2021/04/09 05:29:12;;;;;;;27.60;8.80;;;;;;;2.16;59.92;99414.39;114314;1193;64388;-77
2021/04/09 05:31:39;;;;;;;16.17;6.67;;;;;;;2.41;58.77;99411.78;114222;1193;64366;-79
2021/04/09 05:34:06;;;;;;;11.65;6.55;;;;;;;2.66;58.93;99410.96;114204;1193;64442;-79
2021/04/09 05:36:32;;;;;;;17.50;6.93;;;;;;;2.84;58.45;99412.97;114222;1193;64407;-78
2021/04/09 05:38:59;;;;;;;16.83;6.20;;;;;;;3.06;58.71;99402.53;114332;1193;64404;-79
2021/04/09 05:41:26;;;;;;;18.17;5.90;;;;;;;3.23;57.93;99405.39;114217;1193;64375;-80
2021/04/09 05:43:52;;;;;;;15.75;6.30;;;;;;;3.35;58.60;99398.80;114262;1193;64499;-80
2021/04/09 05:46:20;;;;;;;13.00;5.85;;;;;;;3.53;57.94;99403.39;114131;1193;64474;-79
2021/04/09 05:48:47;;;;;;;12.43;5.47;;;;;;;3.73;58.03;99391.20;114244;1193;64410;-80
2021/04/09 05:51:13;;;;;;;11.17;5.63;;;;;;;3.88;58.02;99400.30;114245;1193;64369;-82
2021/04/09 05:53:40;;;;;;;10.87;5.20;;;;;;;4.00;57.93;99390.11;114276;1192;64353;-82
2021/04/09 05:56:07;;;;;;;19.90;6.37;;;;;;;4.17;58.34;99393.87;114242;1193;64509;-79
2021/04/09 05:58:35;;;;;;;11.63;6.07;;;;;;;4.26;58.36;99388.19;114216;1193;64378;-83
2021/04/09 06:01:01;;;;;;;23.40;6.30;;;;;;;4.38;57.51;99387.69;114245;1193;64349;-83
2021/04/09 06:03:28;;;;;;;21.70;7.25;;;;;;;4.47;57.41;99379.39;114250;1193;64369;-82
2021/04/09 06:05:55;;;;;;;22.27;7.17;;;;;;;4.63;57.65;99373.44;114221;1192;64355;-81
2021/04/09 06:08:21;;;;;;;21.97;6.10;;;;;;;4.71;57.10;99376.59;114299;1193;64503;-80
2021/04/09 06:10:48;;;;;;;20.65;6.65;;;;;;;4.74;56.97;99377.34;114269;1193;64468;-78
2021/04/09 06:13:15;;;;;;;20.60;6.70;;;;;;;4.78;57.26;99380.73;114201;1193;64317;-78
2021/04/09 06:15:42;;;;;;;18.47;6.40;;;;;;;4.93;58.02;99379.19;114301;1193;64490;-80
2021/04/09 06:18:10;;;;;;;11.47;6.03;;;;;;;5.02;56.93;99366.39;114254;1193;64291;-79
2021/04/09 06:20:38;;;;;;;23.53;6.60;;;;;;;4.97;55.86;99367.55;114212;1193;64542;-81
2021/04/09 06:23:04;;;;;;;23.63;5.73;;;;;;;4.95;57.21;99364.09;114293;1193;64478;-79
2021/04/09 06:25:31;;;;;;;9.43;5.73;;;;;;;4.99;57.14;99363.04;114242;1193;64455;-79
2021/04/09 06:27:58;;;;;;;12.90;5.63;;;;;;;5.04;56.61;99359.27;114283;1193;65263;-79
2021/04/09 06:30:25;;;;;;;13.15;6.50;;;;;;;5.19;57.07;99343.61;114439;1193;64439;-77
2021/04/09 06:32:52;;;;;;;13.65;5.65;;;;;;;5.28;56.74;99348.47;114252;1193;64397;-78
2021/04/09 06:35:19;;;;;;;16.13;6.00;;;;;;;5.39;55.56;99348.84;114308;1193;64465;-83
2021/04/09 06:37:48;;;;;;;11.00;5.90;;;;;;;5.47;56.46;99345.83;114115;1193;64452;-80
2021/04/09 06:40:15;;;;;;;12.35;6.50;;;;;;;5.66;56.20;99342.28;114358;1193;64372;-77
2021/04/09 06:42:43;;;;;;;16.33;7.17;;;;;;;5.84;55.52;99343.16;114229;1193;64292;-81
2021/04/09 06:45:12;;;;;;;10.83;6.00;;;;;;;5.91;55.77;99341.11;114294;1193;64388;-85
2021/04/09 06:47:39;;;;;;;11.60;7.27;;;;;;;5.94;55.73;99335.67;114259;1193;64330;-79
2021/04/09 06:50:06;;;;;;;14.03;7.13;;;;;;;6.09;56.53;99339.36;114248;1193;64391;-79
2021/04/09 06:52:33;;;;;;;17.10;6.67;;;;;;;6.27;55.78;99338.45;114262;1193;64388;-77
2021/04/09 06:55:00;;;;;;;20.77;6.77;;;;;;;6.38;54.71;99338.77;114338;1193;64367;-81
2021/04/09 06:57:29;;;;;;;17.25;6.75;;;;;;;6.49;56.32;99341.75;114377;1193;64449;-79
2021/04/09 06:59:59;;;;;;;12.80;7.53;;;;;;;6.68;56.10;99341.66;114366;1192;64414;-81
2021/04/09 07:02:28;;;;;;;26.70;7.60;;;;;;;6.90;56.52;99341.39;114343;1193;64535;-78
2021/04/09 07:04:55;;;;;;;21.27;6.93;;;;;;;7.02;55.11;99334.58;114337;1193;64461;-78
2021/04/09 07:07:21;;;;;;;14.97;6.80;;;;;;;7.00;54.56;99331.16;114363;1193;64388;-80
2021/04/09 07:09:49;;;;;;;22.63;7.47;;;;;;;6.94;54.44;99327.03;114324;1192;64796;-81
2021/04/09 07:12:21;;;;;;;28.03;8.00;;;;;;;6.92;54.57;99328.03;114283;1193;64452;-80
2021/04/09 07:14:49;;;;;;;15.90;7.57;;;;;;;6.93;53.93;99319.13;114360;1193;64445;-83
2021/04/09 07:17:44;;;;;;;47.75;8.00;;;;;;;7.00;54.15;99307.27;114289;1193;64347;-78
2021/04/09 07:20:29;;;;;;;16.43;7.17;;;;;;;7.13;55.65;99315.43;114341;1193;64452;-81
2021/04/09 07:23:00;;;;;;;12.03;7.17;;;;;;;7.29;55.29;99326.92;114315;1193;64356;-79
2021/04/09 07:25:34;;;;;;;22.83;7.50;;;;;;;7.44;54.80;99314.59;114311;1193;64350;-77
2021/04/09 07:28:21;;;;;;;45.03;9.87;;;;;;;7.56;55.29;99311.25;114406;1193;64308;-78
2021/04/09 07:30:56;;;;;;;28.37;8.20;;;;;;;7.62;54.90;99307.41;114432;1193;64365;-77
2021/04/09 07:33:26;;;;;;;16.33;7.87;;;;;;;7.70;52.52;99314.02;114478;1193;64505;-78
2021/04/09 07:36:00;;;;;;;32.20;9.03;;;;;;;7.62;53.64;99302.08;114348;1193;64365;-86
2021/04/09 07:38:31;;;;;;;18.43;8.00;;;;;;;7.62;54.65;99302.94;114383;1193;64576;-78
2021/04/09 07:41:00;;;;;;;17.40;8.20;;;;;;;7.71;54.45;99307.75;114314;1193;64285;-79
2021/04/09 07:43:37;;;;;;;12.47;8.37;;;;;;;7.74;54.23;99291.62;114469;1193;64422;-77
2021/04/09 07:46:21;;;;;;;15.83;7.97;;;;;;;7.86;53.63;99298.90;114432;1193;64417;-80
2021/04/09 07:48:51;;;;;;;17.47;8.17;;;;;;;7.88;53.50;99290.83;114384;1193;64288;-77
2021/04/09 07:51:20;;;;;;;12.20;7.60;;;;;;;8.00;54.37;99286.61;114322;1193;64346;-77
2021/04/09 07:53:47;;;;;;;30.27;8.67;;;;;;;8.01;53.18;99277.68;114402;1193;64417;-78
2021/04/09 07:56:17;;;;;;;18.23;8.10;;;;;;;8.06;53.36;99280.94;114378;1193;64381;-78
2021/04/09 07:58:54;;;;;;;36.40;9.30;;;;;;;8.10;53.39;99293.13;114381;1193;64388;-81
2021/04/09 08:01:24;;;;;;;15.70;7.67;;;;;;;8.16;53.47;99286.59;114524;1193;64525;-81
2021/04/09 08:03:52;;;;;;;14.93;8.37;;;;;;;8.29;54.16;99285.77;114335;1193;64346;-77
2021/04/09 08:06:36;;;;;;;20.67;7.47;;;;;;;8.47;52.68;99277.69;114325;1193;64471;-79
2021/04/09 08:09:03;;;;;;;24.10;8.60;;;;;;;8.43;52.36;99278.81;114390;1193;64327;-81
2021/04/09 08:11:32;;;;;;;29.30;9.70;;;;;;;8.32;52.73;99271.42;114333;1193;64346;-78
2021/04/09 08:14:11;;;;;;;18.30;9.17;;;;;;;8.31;52.98;99281.20;114308;1193;64359;-79
2021/04/09 08:16:45;;;;;;;21.65;8.85;;;;;;;8.37;52.28;99278.22;114396;1192;64430;-77
2021/04/09 08:19:24;;;;;;;22.53;8.13;;;;;;;8.51;52.23;99265.89;114379;1193;64360;-77
2021/04/09 08:22:00;;;;;;;18.15;8.05;;;;;;;8.72;53.67;99261.09;114294;1193;64298;-79
2021/04/09 08:24:32;;;;;;;15.17;7.97;;;;;;;9.01;52.98;99256.61;114251;1193;64382;-82
2021/04/09 08:27:00;;;;;;;27.33;10.03;;;;;;;9.12;51.86;99272.78;114359;1193;64436;-83
2021/04/09 08:29:29;;;;;;;22.60;9.90;;;;;;;9.14;52.63;99261.06;114398;1193;64346;-78
2021/04/09 08:31:58;;;;;;;22.33;9.93;;;;;;;9.32;52.59;99256.39;114445;1193;64484;-78
2021/04/09 08:34:26;;;;;;;21.83;8.67;;;;;;;9.38;52.10;99249.81;114445;1192;64365;-77
2021/04/09 08:36:52;;;;;;;17.07;7.97;;;;;;;9.45;52.71;99253.80;114295;1193;64455;-78
2021/04/09 08:39:20;;;;;;;17.23;7.90;;;;;;;9.53;51.57;99255.95;114368;1193;65410;-78
2021/04/09 08:41:50;;;;;;;19.20;7.97;;;;;;;9.62;52.09;99258.05;114337;1193;64318;-76
2021/04/09 08:44:17;;;;;;;30.43;8.87;;;;;;;9.70;50.98;99245.06;114304;1192;64372;-79
2021/04/09 08:46:45;;;;;;;22.50;8.57;;;;;;;9.74;52.27;99234.10;114389;1193;64436;-77
2021/04/09 08:49:14;;;;;;;17.03;7.87;;;;;;;9.86;52.36;99236.89;114377;1193;64905;-80
2021/04/09 08:51:43;;;;;;;14.55;8.50;;;;;;;9.92;51.96;99234.67;114351;1193;64416;-79
2021/04/09 08:54:16;;;;;;;15.07;8.67;;;;;;;9.97;52.55;99237.04;114361;1193;64372;-81
2021/04/09 08:56:43;;;;;;;20.10;9.00;;;;;;;10.20;52.08;99230.17;114381;1193;64368;-77
2021/04/09 08:59:10;;;;;;;14.30;8.30;;;;;;;10.33;51.86;99227.55;114329;1193;64446;-81
2021/04/09 09:01:39;;;;;;;20.97;9.63;;;;;;;10.30;50.09;99220.59;114482;1193;64796;-79
2021/04/09 09:04:21;;;;;;;16.43;8.83;;;;;;;10.23;50.85;99219.30;114403;1193;64528;-80
2021/04/09 09:06:50;;;;;;;14.30;7.80;;;;;;;10.38;49.65;99217.42;114338;1192;64419;-80
2021/04/09 09:09:35;;;;;;;17.00;9.23;;;;;;;10.34;51.71;99210.58;114416;1193;64416;-78
2021/04/09 09:12:04;;;;;;;17.80;8.45;;;;;;;10.54;51.96;99208.23;114367;1193;64384;-77
2021/04/09 09:14:34;;;;;;;12.80;7.23;;;;;;;10.77;51.18;99214.64;114405;1193;64318;-80
2021/04/09 09:17:22;;;;;;;12.67;7.97;;;;;;;10.80;50.22;99209.07;114325;1193;64439;-78
2021/04/09 09:20:06;;;;;;;16.63;8.77;;;;;;;10.72;51.79;99211.44;114503;1193;64314;-76
2021/04/09 09:23:17;;;;;;;18.10;8.60;;;;;;;10.87;50.09;99193.46;114363;1193;64359;-78
2021/04/09 09:25:44;;;;;;;30.60;9.35;;;;;;;10.85;49.11;99186.53;114348;1193;64493;-77
2021/04/09 09:28:16;;;;;;;34.30;9.27;;;;;;;10.74;50.27;99204.16;114299;1193;64350;-78
2021/04/09 09:30:54;;;;;;;20.20;8.55;;;;;;;10.83;50.52;99186.65;114456;1193;64506;-77
2021/04/09 09:33:26;;;;;;;28.57;8.03;;;;;;;10.98;50.03;99198.05;114311;1192;64331;-77
2021/04/09 09:36:23;;;;;;;37.20;9.13;;;;;;;10.90;49.92;99193.26;114289;1193;64394;-78
2021/04/09 09:38:57;;;;;;;25.13;8.87;;;;;;;11.07;50.56;99190.24;114430;1193;64669;-79
2021/04/09 09:41:39;;;;;;;15.70;7.60;;;;;;;11.19;50.71;99176.93;114448;1193;64372;-77
2021/04/09 09:44:31;;;;;;;69.67;11.57;;;;;;;11.42;50.84;99181.46;114397;1193;64224;-78
2021/04/09 09:46:59;;;;;;;27.40;8.90;;;;;;;11.59;49.95;99175.73;114431;1193;64359;-78
2021/04/09 09:49:28;;;;;;;26.03;8.60;;;;;;;11.62;50.24;99172.81;114428;1193;64452;-79
2021/04/09 09:51:56;;;;;;;15.03;8.67;;;;;;;11.70;49.88;99171.38;114543;1193;64391;-77
2021/04/09 09:54:33;;;;;;;20.70;7.95;;;;;;;11.87;50.18;99157.63;114388;1192;64426;-81
2021/04/09 09:57:39;;;;;;;13.53;8.00;;;;;;;12.09;50.80;99147.01;114383;1191;64454;-76
2021/04/09 10:00:06;;;;;;;14.10;7.77;;;;;;;12.23;49.68;99137.91;114378;1193;64363;-78
2021/04/09 10:02:34;;;;;;;17.65;9.30;;;;;;;12.40;49.35;99140.09;114296;1193;64426;-78
2021/04/09 10:05:02;;;;;;;35.95;9.50;;;;;;;12.48;49.16;99141.35;114312;1192;64372;-82
2021/04/09 10:07:32;;;;;;;61.80;11.10;;;;;;;12.52;48.74;99138.29;114349;1193;64362;-79
2021/04/09 10:10:00;;;;;;;22.90;7.50;;;;;;;12.43;47.95;99122.95;114278;1193;64484;-78
2021/04/09 10:12:28;;;;;;;28.50;8.15;;;;;;;12.12;47.69;99129.84;114395;1192;64359;-79
2021/04/09 10:14:57;;;;;;;23.63;7.50;;;;;;;11.78;48.16;99137.75;114416;1193;64835;-78
2021/04/09 10:17:24;;;;;;;23.80;8.57;;;;;;;11.59;49.13;99146.31;114331;1193;64410;-81
2021/04/09 10:19:59;;;;;;;18.10;8.83;;;;;;;11.82;49.36;99144.59;114389;1193;64490;-77
2021/04/09 10:22:28;;;;;;;28.93;9.37;;;;;;;12.00;48.51;99139.66;114550;1193;64506;-78
2021/04/09 10:24:57;;;;;;;25.10;8.55;;;;;;;12.24;48.95;99133.41;114305;1193;64743;-80
2021/04/09 10:27:24;;;;;;;21.10;8.20;;;;;;;12.47;49.00;99132.47;114284;1193;64359;-80
2021/04/09 10:29:51;;;;;;;22.47;8.30;;;;;;;12.53;48.26;99117.71;114337;1193;64295;-77
2021/04/09 10:32:21;;;;;;;22.87;8.30;;;;;;;12.61;48.02;99120.66;114333;1192;64333;-79
2021/04/09 10:34:51;;;;;;;40.15;9.20;;;;;;;12.69;46.90;99115.53;114248;1193;64400;-80
2021/04/09 10:37:26;;;;;;;21.65;8.65;;;;;;;12.59;47.54;99107.36;114316;1193;64369;-77
2021/04/09 10:39:53;;;;;;;;;;;;;;;12.79;46.88;99112.95;114307;1201;64430;-82
2021/04/09 10:42:20;;;;;;;54.65;10.10;;;;;;;12.89;46.38;99096.02;114322;1193;64956;-79
2021/04/09 10:44:47;;;;;;;18.10;9.40;;;;;;;12.90;47.96;99110.27;114324;1193;64379;-79
2021/04/09 10:47:15;;;;;;;80.00;11.37;;;;;;;13.12;47.21;99098.67;114255;1193;64365;-79
2021/04/09 10:49:44;;;;;;;24.85;8.60;;;;;;;13.30;48.25;99105.23;114227;1193;64363;-81
2021/04/09 10:52:14;;;;;;;23.13;9.40;;;;;;;13.32;44.92;99100.59;114356;1193;64474;-79
2021/04/09 10:54:47;;;;;;;29.87;8.97;;;;;;;13.17;46.40;99102.68;114405;1193;64369;-80
2021/04/09 10:57:16;;;;;;;20.80;9.55;;;;;;;13.10;44.89;99085.37;114408;1193;64395;-82
2021/04/09 10:59:47;;;;;;;15.10;8.63;;;;;;;12.98;46.83;99089.08;114299;1193;64413;-81
2021/04/09 11:02:22;;;;;;;25.10;8.80;;;;;;;13.03;45.55;99078.80;114453;1193;64368;-79
2021/04/09 11:04:51;;;;;;;13.80;8.80;;;;;;;13.04;46.86;99080.53;114395;1193;64321;-80
2021/04/09 11:07:18;;;;;;;19.35;8.75;;;;;;;13.10;45.78;99080.00;114463;1193;64308;-81
2021/04/09 11:09:49;;;;;;;24.97;10.87;;;;;;;13.15;46.00;99079.63;114314;1193;64451;-77
2021/04/09 11:12:19;;;;;;;16.30;9.75;;;;;;;13.28;47.06;99074.99;114249;1193;64371;-78
2021/04/09 11:15:11;;;;;;;15.13;8.57;;;;;;;13.75;47.34;99057.60;114499;1193;64340;-80
2021/04/09 11:17:40;;;;;;;21.67;8.30;;;;;;;14.24;47.01;99050.66;114435;1193;64363;-77
2021/04/09 11:20:25;;;;;;;27.87;9.60;;;;;;;14.43;43.64;99055.28;114361;1193;64423;-78
2021/04/09 11:23:04;;;;;;;23.05;7.93;;;;;;;14.23;45.10;99065.09;114337;1193;64337;-82
2021/04/09 11:25:46;;;;;;;14.67;7.57;;;;;;;14.01;45.55;99065.26;114330;1193;64480;-77
2021/04/09 11:28:24;;;;;;;26.35;7.90;;;;;;;14.15;46.00;99056.00;114333;1192;64576;-78
2021/04/09 11:31:04;;;;;;;15.77;7.70;;;;;;;14.42;44.91;99055.42;114349;1192;64346;-77